Portada
METAR-TAF:

METAR-TAF

Aeropuertos :

Córdoba, España

Aeropuerto de Córdoba

latitud: 37-51N, longitud: 004-51W, altitud: 90 m

Observación

El informe se hizo hace 10 minutos, a las 16:30 UTC
Viento 11 kt del oeste, variando entre sur-suroeste y oeste-noroeste
Temperatura 26°C
Humedad 51%
Presión 1015 hPa
Visibilidad 10 km o más
Escasas nubes a una altura de 4100 ft
Nubes dispersas a una altura de 4700 ft

METAR: LEBA 281630Z AUTO 26011KT 210V290 9999 FEW041 SCT047 26/15 Q1015

Hora: 18:40 (16:40 UTC)

Pronóstico

El informe se hizo hace 2 horas y 40 minutos, a las 14:00 UTC
Pronóstico válido del 28 a las 15 UTC al 28 a las 24 UTC
Viento 9 kt del oeste-suroeste
Visibilidad 10 km o más
Escasas nubes a una altura de 4500 ft

TAF: LEBA 281400Z 2815/2824 24009KT 9999 FEW045

Observaciones y pronósticos meteorológicos de más de 4000 aeropuertos (mensajes METAR y TAF).

Los puntos amarillos y rojos representan las estaciones disponibles.

Ponga el ratón en el punto deseado para ver el nombre de la estación.

Haga clic para ver las observaciones y los pronósticos meteorológicos.

Para cambiar el mapa : haga clic en los botones verdes con una cruz de color negro para hacer un zoom, en el botón verde con un guión para alejar o en las flechas verdes para mapas adyacentes.


METAR-TAF: